Terminal Aerodrome Forecast
Issued by NWS

Home | Current Version | Previous Version | Text Only | Print | Product List | Glossary On
Versions: 1 2 3 4 5 6 7 8 9 10 11 12 13 14 15 16 17 18 19 20 21 22 23 24
330
FTUS41 KPBZ 220520
TAFDUJ
TAF
KDUJ 220520Z 2206/2306 02008KT P6SM -RA OVC035
     FM221000 05008KT 3SM -FZRA OVC015
     FM221700 07012KT 3SM -RA OVC005
     FM222100 09012KT P6SM OVC010=

USA.gov is the U.S. government's official web portal to all federal, state and local government web resources and services.